Time;durP1;ratioP1;P1;durP2;ratioP2;P2;SDS_P1;SDS_P2;PMS_P1;PMS_P2;Temp;Humidity;BMP_temperature;BMP_pressure;BME280_temperature;BME280_humidity;BME280_pressure;Samples;Min_cycle;Max_cycle;Signal;HPM_P1;HPM_P2
2024/01/23 00:00:21;;;;;;;2.35;1.35;;;6.50;99.90;;;;;;5009216;28;20025;-82
2024/01/23 00:02:47;;;;;;;1.60;1.00;;;6.40;99.90;;;;;;5030017;28;20022;-81
2024/01/23 00:05:12;;;;;;;2.38;0.95;;;6.40;99.90;;;;;;5026382;28;20059;-82
2024/01/23 00:07:38;;;;;;;2.65;1.33;;;6.40;99.90;;;;;;5009006;28;20029;-83
2024/01/23 00:10:04;;;;;;;1.48;0.90;;;6.40;99.90;;;;;;5010696;28;20034;-81
2024/01/23 00:12:30;;;;;;;4.25;1.30;;;6.40;99.90;;;;;;5012103;28;20017;-83
2024/01/23 00:14:57;;;;;;;1.92;1.20;;;6.40;99.90;;;;;;5029327;28;20025;-82
2024/01/23 00:17:23;;;;;;;1.90;1.17;;;6.40;99.90;;;;;;5030475;28;20504;-81
2024/01/23 00:19:48;;;;;;;1.63;0.90;;;6.40;99.90;;;;;;5010494;28;20025;-82
2024/01/23 00:22:14;;;;;;;3.80;1.05;;;6.40;99.90;;;;;;5025275;28;20024;-82
2024/01/23 00:24:39;;;;;;;4.60;1.10;;;6.40;99.90;;;;;;5011969;28;20037;-83
2024/01/23 00:27:05;;;;;;;2.20;1.23;;;6.40;99.90;;;;;;5017946;28;20029;-81
2024/01/23 00:29:31;;;;;;;1.40;0.95;;;6.40;99.90;;;;;;5013418;28;20021;-83
2024/01/23 00:31:56;;;;;;;3.97;1.35;;;6.40;99.90;;;;;;5010148;28;20071;-82
2024/01/23 00:34:22;;;;;;;8.02;1.20;;;6.40;99.90;;;;;;5025250;28;20708;-81
2024/01/23 00:36:47;;;;;;;1.75;1.10;;;6.40;99.90;;;;;;5024100;28;20468;-82
2024/01/23 00:39:13;;;;;;;5.35;1.25;;;6.40;99.90;;;;;;5028996;28;20017;-81
2024/01/23 00:41:39;;;;;;;1.98;1.08;;;6.40;99.90;;;;;;5011585;28;20480;-81
2024/01/23 00:44:05;;;;;;;1.42;1.05;;;6.40;99.90;;;;;;5010219;28;20504;-82
2024/01/23 00:46:30;;;;;;;2.90;1.08;;;6.40;99.90;;;;;;5012594;28;20060;-82
2024/01/23 00:48:56;;;;;;;2.72;1.00;;;6.40;99.90;;;;;;5006346;28;20076;-81
2024/01/23 00:51:21;;;;;;;2.28;1.17;;;6.40;99.90;;;;;;5032768;28;20167;-81
2024/01/23 00:53:47;;;;;;;4.72;1.25;;;6.40;99.90;;;;;;5011595;28;20021;-82
2024/01/23 00:56:12;;;;;;;3.45;1.35;;;6.40;99.90;;;;;;5028793;28;20657;-81
2024/01/23 00:58:38;;;;;;;5.25;1.02;;;6.40;99.90;;;;;;5013754;28;20539;-82
2024/01/23 01:01:03;;;;;;;1.58;1.23;;;6.40;99.90;;;;;;5025958;28;20017;-81
2024/01/23 01:03:30;;;;;;;1.63;0.85;;;6.40;99.90;;;;;;5021179;28;20051;-82
2024/01/23 01:05:56;;;;;;;4.85;1.10;;;6.40;99.90;;;;;;5014512;28;20021;-81
2024/01/23 01:08:21;;;;;;;3.63;1.33;;;6.40;99.90;;;;;;5013060;28;20026;-81
2024/01/23 01:10:47;;;;;;;3.63;1.10;;;6.40;99.90;;;;;;5013667;28;20402;-82
2024/01/23 01:13:13;;;;;;;3.35;1.00;;;6.40;99.90;;;;;;5027083;28;20029;-81
2024/01/23 01:15:38;;;;;;;3.92;1.10;;;6.40;99.90;;;;;;5018114;28;20022;-83
2024/01/23 01:18:07;;;;;;;2.45;1.10;;;6.40;99.90;;;;;;5014085;28;20113;-81
2024/01/23 01:20:33;;;;;;;2.05;1.05;;;6.40;99.90;;;;;;5032764;28;20021;-82
2024/01/23 01:22:59;;;;;;;1.10;0.95;;;6.40;99.90;;;;;;5012875;28;20028;-83
2024/01/23 01:25:25;;;;;;;1.80;1.10;;;6.40;99.90;;;;;;5030085;28;20033;-82
2024/01/23 01:27:50;;;;;;;4.80;1.30;;;6.40;99.90;;;;;;5015707;28;20443;-83
2024/01/23 01:30:16;;;;;;;3.47;1.23;;;6.40;99.90;;;;;;5030668;28;20112;-81
2024/01/23 01:32:42;;;;;;;1.88;1.00;;;6.40;99.90;;;;;;5014712;28;20028;-82
2024/01/23 01:35:08;;;;;;;4.22;1.00;;;6.40;99.90;;;;;;5012988;28;20022;-82
2024/01/23 01:37:33;;;;;;;2.65;0.75;;;6.40;99.90;;;;;;5028482;28;20025;-83
2024/01/23 01:39:59;;;;;;;6.03;1.02;;;6.40;99.90;;;;;;5029380;28;20479;-81
2024/01/23 01:42:25;;;;;;;1.08;0.75;;;6.40;99.90;;;;;;5031193;28;20037;-81
2024/01/23 01:44:50;;;;;;;1.15;0.63;;;6.40;99.90;;;;;;5013821;28;20072;-81
2024/01/23 01:47:17;;;;;;;0.70;0.70;;;6.40;99.90;;;;;;5013861;28;20078;-82
2024/01/23 01:49:43;;;;;;;3.65;0.70;;;6.40;99.90;;;;;;5013860;28;20028;-81
2024/01/23 01:52:11;;;;;;;2.85;0.68;;;6.40;99.90;;;;;;5020246;28;20021;-81
2024/01/23 01:54:40;;;;;;;2.05;0.70;;;6.40;99.90;;;;;;5021566;28;20021;-82
2024/01/23 01:57:07;;;;;;;1.52;0.80;;;6.40;99.90;;;;;;5013232;28;20021;-82
2024/01/23 01:59:33;;;;;;;4.10;0.77;;;6.40;99.90;;;;;;5014485;28;20018;-81
2024/01/23 02:02:00;;;;;;;3.03;0.90;;;6.40;99.90;;;;;;5011715;28;20022;-82
2024/01/23 02:04:25;;;;;;;2.05;0.70;;;6.40;99.90;;;;;;5019606;28;20026;-81
2024/01/23 02:06:52;;;;;;;4.82;0.90;;;6.40;99.90;;;;;;5033698;28;20025;-82
2024/01/23 02:09:17;;;;;;;1.10;0.65;;;6.40;99.90;;;;;;5012274;28;20036;-83
2024/01/23 02:12:00;;;;;;;1.98;0.73;;;6.40;99.90;;;;;;5013793;28;20399;-82
2024/01/23 02:14:26;;;;;;;1.27;0.88;;;6.40;99.90;;;;;;5011196;28;20118;-81
2024/01/23 02:16:53;;;;;;;4.65;1.38;;;6.40;99.90;;;;;;5029123;28;20091;-82
2024/01/23 02:19:18;;;;;;;1.30;0.75;;;6.40;99.90;;;;;;5013777;28;20022;-82
2024/01/23 02:21:44;;;;;;;1.55;0.80;;;6.40;99.90;;;;;;5031148;28;20022;-81
2024/01/23 02:24:10;;;;;;;2.00;1.08;;;6.40;99.90;;;;;;5014452;28;20420;-81
2024/01/23 02:26:35;;;;;;;2.50;0.98;;;6.40;99.90;;;;;;5028243;28;20144;-82
2024/01/23 02:29:01;;;;;;;3.03;1.08;;;6.40;99.90;;;;;;5032664;28;20029;-82
2024/01/23 02:31:26;;;;;;;3.38;0.85;;;6.40;99.90;;;;;;5034260;28;20025;-84
2024/01/23 02:33:52;;;;;;;2.03;1.15;;;6.40;99.90;;;;;;5012068;28;20028;-82
2024/01/23 02:36:17;;;;;;;3.40;1.27;;;6.40;99.90;;;;;;5011998;28;20017;-81
2024/01/23 02:38:43;;;;;;;0.90;0.90;;;6.40;99.90;;;;;;5013138;28;20666;-82
2024/01/23 02:41:09;;;;;;;0.60;0.60;;;6.40;99.90;;;;;;5013193;28;20483;-83
2024/01/23 02:43:36;;;;;;;5.47;1.08;;;6.40;99.90;;;;;;5015647;28;20044;-81
2024/01/23 02:46:03;;;;;;;2.63;0.88;;;6.40;99.90;;;;;;5029845;28;20479;-82
2024/01/23 02:48:28;;;;;;;8.95;1.38;;;6.40;99.90;;;;;;5029072;28;20464;-82
2024/01/23 02:50:54;;;;;;;5.28;0.57;;;6.40;99.90;;;;;;5011707;28;20021;-82
2024/01/23 02:53:20;;;;;;;0.93;0.70;;;6.40;99.90;;;;;;5016893;28;20025;-82
2024/01/23 02:55:45;;;;;;;3.10;1.25;;;6.40;99.90;;;;;;5015656;28;20018;-82
2024/01/23 02:58:11;;;;;;;4.63;0.73;;;6.40;99.90;;;;;;5032559;28;20021;-81
2024/01/23 03:00:39;;;;;;;4.38;1.02;;;6.40;99.90;;;;;;5012231;28;20020;-83
2024/01/23 03:03:08;;;;;;;4.43;0.93;;;6.40;99.90;;;;;;5011135;28;20109;-82
2024/01/23 03:05:33;;;;;;;0.63;0.63;;;6.40;99.90;;;;;;5030680;28;20026;-82
2024/01/23 03:07:59;;;;;;;2.05;1.00;;;6.40;99.90;;;;;;5036812;28;20072;-82
2024/01/23 03:10:25;;;;;;;5.78;1.10;;;6.40;99.90;;;;;;5029331;28;20522;-82
2024/01/23 03:12:50;;;;;;;3.08;0.80;;;6.40;99.90;;;;;;5013038;28;20467;-82
2024/01/23 03:15:16;;;;;;;1.40;0.80;;;6.40;99.90;;;;;;5011058;28;20042;-82
2024/01/23 03:17:42;;;;;;;6.45;0.95;;;6.40;99.90;;;;;;5016298;28;20467;-81
2024/01/23 03:20:08;;;;;;;3.28;0.63;;;6.40;99.90;;;;;;5015106;28;20018;-81
2024/01/23 03:22:33;;;;;;;4.13;0.98;;;6.40;99.90;;;;;;5008467;28;20045;-82
2024/01/23 03:24:59;;;;;;;4.28;0.90;;;6.40;99.90;;;;;;5011666;28;20543;-82
2024/01/23 03:27:25;;;;;;;2.97;0.82;;;6.40;99.90;;;;;;5007815;28;20021;-81
2024/01/23 03:29:55;;;;;;;6.05;1.20;;;6.40;99.90;;;;;;5012283;28;20025;-81
2024/01/23 03:32:21;;;;;;;3.50;1.05;;;6.40;99.90;;;;;;5015783;28;20026;-82
2024/01/23 03:34:46;;;;;;;2.50;0.63;;;6.40;99.90;;;;;;5029953;28;20031;-82
2024/01/23 03:37:12;;;;;;;3.03;1.23;;;6.40;99.90;;;;;;5013307;28;20083;-81
2024/01/23 03:39:38;;;;;;;9.32;1.10;;;6.40;99.90;;;;;;5009945;28;20051;-82
2024/01/23 03:42:04;;;;;;;1.80;0.82;;;6.40;99.90;;;;;;5028095;28;20597;-82
2024/01/23 03:44:29;;;;;;;3.75;1.17;;;6.40;99.90;;;;;;5013579;28;20021;-83
2024/01/23 03:46:56;;;;;;;5.43;1.33;;;6.40;99.90;;;;;;5033024;28;20134;-83
2024/01/23 03:49:22;;;;;;;4.55;1.02;;;6.40;99.90;;;;;;5014940;28;20026;-81
2024/01/23 03:51:48;;;;;;;9.10;1.13;;;6.40;99.90;;;;;;5025912;28;20579;-83
2024/01/23 03:54:15;;;;;;;3.30;1.00;;;6.40;99.90;;;;;;5012213;28;20014;-81
2024/01/23 03:56:41;;;;;;;2.95;1.00;;;6.40;99.90;;;;;;5018205;28;20557;-82
2024/01/23 03:59:06;;;;;;;3.88;1.10;;;6.40;99.90;;;;;;5031978;28;20017;-81
2024/01/23 04:01:32;;;;;;;4.55;1.25;;;6.40;99.90;;;;;;5014205;28;20024;-82
2024/01/23 04:03:57;;;;;;;1.75;0.80;;;6.40;99.90;;;;;;5027504;28;20017;-82
2024/01/23 04:06:23;;;;;;;2.10;0.85;;;6.40;99.90;;;;;;5010004;28;20053;-82
2024/01/23 04:08:49;;;;;;;5.97;1.00;;;6.40;99.90;;;;;;5012105;28;20030;-82
2024/01/23 04:11:14;;;;;;;3.85;0.90;;;6.40;99.90;;;;;;5032109;28;20013;-81
2024/01/23 04:13:40;;;;;;;8.93;1.10;;;6.40;99.90;;;;;;5011594;28;20021;-82
2024/01/23 04:16:06;;;;;;;11.85;1.27;;;6.40;99.90;;;;;;5010707;28;20033;-81
2024/01/23 04:18:33;;;;;;;6.05;1.13;;;6.40;99.90;;;;;;5026204;28;20022;-82
2024/01/23 04:20:58;;;;;;;3.42;0.77;;;6.40;99.90;;;;;;5015120;28;20021;-81
2024/01/23 04:23:24;;;;;;;11.80;1.02;;;6.40;99.90;;;;;;5011658;28;20527;-81
2024/01/23 04:25:50;;;;;;;4.95;1.17;;;6.40;99.90;;;;;;5011855;28;20018;-83
2024/01/23 04:28:15;;;;;;;7.88;1.23;;;6.40;99.90;;;;;;5027407;28;20022;-83
2024/01/23 04:30:41;;;;;;;2.72;0.98;;;6.40;99.90;;;;;;5026993;28;20026;-81
2024/01/23 04:33:07;;;;;;;2.15;0.90;;;6.40;99.90;;;;;;5015406;28;20029;-81
2024/01/23 04:35:33;;;;;;;5.05;1.00;;;6.40;99.90;;;;;;5016620;28;20074;-81
2024/01/23 04:37:58;;;;;;;3.85;1.30;;;6.40;99.90;;;;;;5015878;28;20036;-83
2024/01/23 04:40:24;;;;;;;1.85;1.00;;;6.40;99.90;;;;;;5015194;28;20109;-80
2024/01/23 04:42:49;;;;;;;6.22;1.10;;;6.40;99.90;;;;;;5013104;28;20025;-82
2024/01/23 04:45:15;;;;;;;10.73;1.10;;;6.40;99.90;;;;;;5036576;28;20067;-81
2024/01/23 04:47:41;;;;;;;1.67;0.80;;;6.40;99.90;;;;;;5017888;28;20072;-82
2024/01/23 04:50:07;;;;;;;5.80;1.40;;;6.40;99.90;;;;;;5035300;28;20048;-82
2024/01/23 04:52:33;;;;;;;3.50;1.00;;;6.40;99.90;;;;;;5015225;28;20029;-81
2024/01/23 04:54:59;;;;;;;4.72;1.17;;;6.40;99.90;;;;;;5029820;28;20029;-83
2024/01/23 04:57:31;;;;;;;2.35;0.90;;;6.40;99.90;;;;;;5018229;28;20017;-81
2024/01/23 04:59:57;;;;;;;2.75;1.15;;;6.40;99.90;;;;;;5015157;28;20021;-81
2024/01/23 05:02:23;;;;;;;3.65;1.20;;;6.40;99.90;;;;;;5032897;28;20079;-82
2024/01/23 05:04:48;;;;;;;5.85;1.40;;;6.40;99.90;;;;;;5014828;28;20021;-82
2024/01/23 05:07:14;;;;;;;2.95;1.17;;;6.40;99.90;;;;;;5015795;28;20047;-82
2024/01/23 05:09:39;;;;;;;3.00;0.80;;;6.40;99.90;;;;;;5031363;28;20496;-83
2024/01/23 05:12:05;;;;;;;2.72;1.15;;;6.40;99.90;;;;;;5032465;28;20536;-82
2024/01/23 05:14:31;;;;;;;3.97;1.33;;;6.40;99.90;;;;;;5014332;28;20531;-81
2024/01/23 05:16:56;;;;;;;4.00;0.95;;;6.40;99.90;;;;;;5032297;28;20097;-81
2024/01/23 05:19:22;;;;;;;3.08;1.10;;;6.40;99.90;;;;;;5013846;28;20022;-83
2024/01/23 05:21:48;;;;;;;4.40;1.52;;;6.40;99.90;;;;;;5014607;28;20108;-82
2024/01/23 05:24:13;;;;;;;5.25;1.52;;;6.40;99.90;;;;;;5014776;28;20040;-82
2024/01/23 05:26:39;;;;;;;3.50;1.08;;;6.40;99.90;;;;;;5016874;28;20036;-81
2024/01/23 05:29:04;;;;;;;3.20;1.08;;;6.40;99.90;;;;;;5015655;28;20022;-82
2024/01/23 05:31:30;;;;;;;4.47;1.00;;;6.40;99.90;;;;;;5012816;28;20395;-82
2024/01/23 05:33:55;;;;;;;4.28;1.08;;;6.40;99.90;;;;;;5014545;28;20032;-82
2024/01/23 05:36:21;;;;;;;4.82;0.95;;;6.40;99.90;;;;;;5032133;28;20028;-82
2024/01/23 05:38:47;;;;;;;1.67;1.25;;;6.40;99.90;;;;;;5014335;28;20033;-81
2024/01/23 05:41:13;;;;;;;4.60;1.00;;;6.40;99.90;;;;;;5012872;28;20491;-82
2024/01/23 05:43:38;;;;;;;3.47;0.98;;;6.40;99.90;;;;;;5013008;28;20120;-81
2024/01/23 05:46:04;;;;;;;2.30;0.70;;;6.40;99.90;;;;;;5014176;28;20032;-82
2024/01/23 05:48:29;;;;;;;1.33;0.80;;;6.40;99.90;;;;;;5034700;28;20098;-82
2024/01/23 05:50:55;;;;;;;3.67;0.73;;;6.50;99.90;;;;;;5014380;28;20022;-82
2024/01/23 05:53:21;;;;;;;2.70;1.00;;;6.40;99.90;;;;;;5015571;28;20112;-82
2024/01/23 05:55:46;;;;;;;1.50;0.73;;;6.40;99.90;;;;;;5012707;28;20025;-81
2024/01/23 05:58:12;;;;;;;0.77;0.57;;;6.40;99.90;;;;;;5014090;28;20013;-82
2024/01/23 06:00:37;;;;;;;1.88;0.70;;;6.40;99.90;;;;;;5014051;28;20017;-82
2024/01/23 06:03:03;;;;;;;5.38;0.90;;;6.50;99.90;;;;;;5014292;28;20091;-81
2024/01/23 06:05:29;;;;;;;1.17;0.77;;;6.40;99.90;;;;;;5031233;28;20025;-82
2024/01/23 06:07:54;;;;;;;1.70;0.90;;;6.40;99.90;;;;;;5010062;28;20032;-81
2024/01/23 06:10:20;;;;;;;1.77;0.95;;;6.40;99.90;;;;;;5013571;28;20076;-81
2024/01/23 06:12:45;;;;;;;0.85;0.52;;;6.40;99.90;;;;;;5029407;28;20025;-81
2024/01/23 06:15:11;;;;;;;1.23;0.77;;;6.40;99.90;;;;;;5031774;28;20034;-81
2024/01/23 06:17:37;;;;;;;9.57;1.10;;;6.40;99.90;;;;;;5012189;28;20049;-81
2024/01/23 06:20:04;;;;;;;5.88;1.52;;;6.40;99.90;;;;;;5029769;28;20009;-82
2024/01/23 06:22:33;;;;;;;1.05;0.70;;;6.40;99.90;;;;;;5034016;28;20013;-81
2024/01/23 06:25:02;;;;;;;0.73;0.60;;;6.40;99.90;;;;;;5008364;28;20021;-83
2024/01/23 06:27:28;;;;;;;1.50;0.85;;;6.40;99.90;;;;;;5015758;28;20034;-82
2024/01/23 06:29:54;;;;;;;1.15;0.70;;;6.40;99.90;;;;;;5013505;28;20022;-82
2024/01/23 06:32:19;;;;;;;1.27;0.63;;;6.40;99.90;;;;;;5031082;28;20506;-82
2024/01/23 06:34:45;;;;;;;2.17;0.50;;;6.40;99.90;;;;;;5035832;28;20403;-82
2024/01/23 06:37:10;;;;;;;4.07;0.60;;;6.40;99.90;;;;;;5015067;28;20029;-82
2024/01/23 06:39:36;;;;;;;0.52;0.47;;;6.40;99.90;;;;;;5032050;28;20033;-82
2024/01/23 06:42:02;;;;;;;0.63;0.55;;;6.40;99.90;;;;;;5014873;28;20555;-82
2024/01/23 06:44:27;;;;;;;1.55;0.52;;;6.40;99.90;;;;;;5028601;28;20512;-81
2024/01/23 06:46:53;;;;;;;0.65;0.50;;;6.40;99.90;;;;;;5029673;28;20048;-82
2024/01/23 06:49:18;;;;;;;1.17;0.50;;;6.40;99.90;;;;;;5016277;28;20063;-81
2024/01/23 06:51:45;;;;;;;0.40;0.40;;;6.50;99.90;;;;;;5033764;28;20021;-82
2024/01/23 06:54:10;;;;;;;1.55;0.40;;;6.40;99.90;;;;;;5014266;28;20025;-82
2024/01/23 06:56:36;;;;;;;0.50;0.50;;;6.40;99.90;;;;;;5013691;28;20017;-81
2024/01/23 06:59:03;;;;;;;0.77;0.50;;;6.40;99.90;;;;;;5028265;28;20069;-82
2024/01/23 07:01:28;;;;;;;0.90;0.50;;;6.40;99.90;;;;;;5027460;28;20032;-83
2024/01/23 07:03:54;;;;;;;0.63;0.40;;;6.40;99.90;;;;;;5012735;28;20021;-82
2024/01/23 07:06:19;;;;;;;1.00;0.77;;;6.40;99.90;;;;;;5011913;28;20546;-81
2024/01/23 07:08:45;;;;;;;0.40;0.40;;;6.40;99.90;;;;;;5008541;28;20017;-81
2024/01/23 07:11:12;;;;;;;2.70;0.43;;;6.40;99.90;;;;;;5029587;28;20033;-81
2024/01/23 07:13:38;;;;;;;0.50;0.50;;;6.40;99.90;;;;;;5037360;28;20377;-83
2024/01/23 07:16:04;;;;;;;0.47;0.47;;;6.40;99.90;;;;;;5033705;28;20020;-82
2024/01/23 07:18:29;;;;;;;0.50;0.50;;;6.40;99.90;;;;;;5012539;28;20017;-82
2024/01/23 07:20:55;;;;;;;0.68;0.60;;;6.50;99.90;;;;;;5017851;28;20029;-81
2024/01/23 07:23:20;;;;;;;0.60;0.43;;;6.40;99.90;;;;;;5012536;28;20025;-82
2024/01/23 07:25:46;;;;;;;4.95;0.50;;;6.40;99.90;;;;;;5034629;28;20025;-81
2024/01/23 07:28:11;;;;;;;0.95;0.50;;;6.40;99.90;;;;;;5030267;28;20018;-81
2024/01/23 07:30:37;;;;;;;0.60;0.50;;;6.40;99.90;;;;;;5012594;28;20079;-80
2024/01/23 07:33:03;;;;;;;0.60;0.60;;;6.40;99.90;;;;;;5011311;28;20484;-83
2024/01/23 07:35:28;;;;;;;0.57;0.50;;;6.40;99.90;;;;;;5011412;28;20492;-82
2024/01/23 07:37:54;;;;;;;0.93;0.60;;;6.40;99.90;;;;;;5014467;28;20100;-82
2024/01/23 07:40:19;;;;;;;0.60;0.60;;;6.50;99.90;;;;;;5030965;28;20018;-80
2024/01/23 07:42:45;;;;;;;1.30;0.90;;;6.40;99.90;;;;;;5010929;28;20048;-83
2024/01/23 07:45:12;;;;;;;0.93;0.60;;;6.50;99.90;;;;;;5012671;28;20128;-81
2024/01/23 07:47:37;;;;;;;0.60;0.60;;;6.50;99.90;;;;;;5011788;28;20547;-82
2024/01/23 07:50:03;;;;;;;0.60;0.60;;;6.50;99.90;;;;;;5032200;28;20563;-81
2024/01/23 07:52:31;;;;;;;0.77;0.77;;;6.50;99.90;;;;;;5011960;28;20455;-82
2024/01/23 07:54:58;;;;;;;1.48;0.60;;;6.50;99.90;;;;;;5011915;28;20057;-81
2024/01/23 07:57:23;;;;;;;1.05;0.70;;;6.50;99.90;;;;;;5029953;28;20036;-82
2024/01/23 07:59:49;;;;;;;0.70;0.70;;;6.50;99.90;;;;;;5010261;28;20013;-81
2024/01/23 08:02:14;;;;;;;0.98;0.88;;;6.50;99.90;;;;;;5011950;28;20017;-81
2024/01/23 08:04:40;;;;;;;0.60;0.60;;;6.40;99.90;;;;;;5012084;28;20029;-81
2024/01/23 08:07:06;;;;;;;0.65;0.65;;;6.50;99.90;;;;;;5012429;28;20029;-82
2024/01/23 08:09:32;;;;;;;0.85;0.82;;;6.50;99.90;;;;;;5031439;28;20033;-81
2024/01/23 08:11:57;;;;;;;0.73;0.73;;;6.50;99.90;;;;;;5016697;28;20164;-81
2024/01/23 08:14:23;;;;;;;1.02;0.90;;;6.50;99.90;;;;;;5015963;28;20524;-82
2024/01/23 08:16:50;;;;;;;2.83;0.82;;;6.50;99.90;;;;;;5015831;28;20548;-81
2024/01/23 08:19:15;;;;;;;1.52;0.90;;;6.50;99.90;;;;;;5018152;28;20071;-83
2024/01/23 08:21:41;;;;;;;1.00;0.65;;;6.50;99.90;;;;;;5015849;28;20499;-83
2024/01/23 08:24:06;;;;;;;2.85;0.70;;;6.50;99.90;;;;;;5016312;28;20095;-82
2024/01/23 08:26:32;;;;;;;0.98;0.70;;;6.60;99.90;;;;;;5015876;28;20399;-82
2024/01/23 08:28:59;;;;;;;0.60;0.60;;;6.60;99.90;;;;;;5036220;28;20438;-81
2024/01/23 08:31:24;;;;;;;0.75;0.60;;;6.60;99.90;;;;;;5015708;28;20030;-82
2024/01/23 08:33:50;;;;;;;1.40;1.02;;;6.70;99.90;;;;;;5033365;28;20032;-82
2024/01/23 08:36:16;;;;;;;0.65;0.65;;;6.80;99.90;;;;;;5037293;28;20071;-81
2024/01/23 08:38:43;;;;;;;1.20;1.10;;;6.80;99.90;;;;;;5019339;28;20017;-82
2024/01/23 08:41:09;;;;;;;2.90;0.80;;;6.80;99.90;;;;;;5032667;28;20021;-82
2024/01/23 08:43:35;;;;;;;0.80;0.80;;;6.80;99.90;;;;;;5014099;28;20041;-82
2024/01/23 08:46:00;;;;;;;0.70;0.70;;;6.80;99.90;;;;;;5016393;28;20064;-82
2024/01/23 08:48:28;;;;;;;1.95;0.88;;;6.90;99.90;;;;;;5015952;28;20021;-82
2024/01/23 08:50:53;;;;;;;0.80;0.80;;;6.90;99.90;;;;;;5019994;28;20028;-82
2024/01/23 08:53:19;;;;;;;1.23;0.73;;;7.00;99.90;;;;;;5037591;28;20025;-83
2024/01/23 08:55:46;;;;;;;3.90;1.38;;;7.00;99.90;;;;;;5015060;28;20095;-82
2024/01/23 08:58:14;;;;;;;1.85;0.80;;;7.00;99.90;;;;;;5031581;28;20021;-82
2024/01/23 09:00:40;;;;;;;2.35;0.70;;;7.00;99.90;;;;;;5033825;28;20026;-82
2024/01/23 09:03:05;;;;;;;0.70;0.70;;;7.00;99.90;;;;;;5015128;28;20037;-81
2024/01/23 09:05:31;;;;;;;3.25;0.70;;;7.00;99.90;;;;;;5034959;28;20041;-82
2024/01/23 09:07:57;;;;;;;1.48;0.77;;;7.00;99.90;;;;;;5035036;28;20034;-81
2024/01/23 09:10:23;;;;;;;1.17;0.60;;;7.00;99.90;;;;;;5010347;28;20053;-82
2024/01/23 09:12:48;;;;;;;0.65;0.65;;;7.00;99.90;;;;;;5012115;28;20484;-82
2024/01/23 09:15:14;;;;;;;0.77;0.77;;;7.10;99.90;;;;;;5014741;28;20091;-82
2024/01/23 09:17:40;;;;;;;0.60;0.60;;;7.10;99.90;;;;;;5011314;28;20451;-82
2024/01/23 09:20:06;;;;;;;2.47;0.73;;;7.10;99.90;;;;;;5016860;28;20018;-82
2024/01/23 09:22:31;;;;;;;3.83;1.15;;;7.10;99.90;;;;;;5014956;28;20112;-83
2024/01/23 09:24:59;;;;;;;2.95;0.80;;;7.20;99.90;;;;;;5014806;28;20109;-82
2024/01/23 09:27:25;;;;;;;1.13;0.70;;;7.20;99.90;;;;;;5036365;28;20024;-82
2024/01/23 09:29:50;;;;;;;5.50;0.80;;;7.10;99.90;;;;;;5014938;28;20021;-81
2024/01/23 09:32:16;;;;;;;1.25;0.90;;;7.10;99.90;;;;;;5033290;28;20041;-81
2024/01/23 09:34:41;;;;;;;2.50;0.63;;;7.00;99.90;;;;;;5014434;28;20025;-81
2024/01/23 09:37:07;;;;;;;2.97;1.20;;;6.90;99.90;;;;;;5015012;28;20013;-81
2024/01/23 09:39:32;;;;;;;1.70;1.17;;;6.90;99.90;;;;;;5031919;28;20017;-82
2024/01/23 09:42:04;;;;;;;1.83;0.95;;;6.90;99.90;;;;;;5036762;28;20025;-82
2024/01/23 09:44:30;;;;;;;4.25;1.08;;;6.90;99.90;;;;;;5028771;28;20022;-82
2024/01/23 09:46:56;;;;;;;4.07;0.82;;;6.90;99.90;;;;;;5010799;28;20026;-81
2024/01/23 09:49:22;;;;;;;1.85;1.15;;;7.00;99.90;;;;;;5010684;28;20034;-83
2024/01/23 09:51:49;;;;;;;2.88;1.08;;;7.20;99.90;;;;;;5014075;28;20070;-82
2024/01/23 09:54:15;;;;;;;4.25;0.85;;;7.30;99.90;;;;;;5017256;28;20028;-82
2024/01/23 09:56:41;;;;;;;4.53;1.00;;;7.40;99.90;;;;;;5016162;28;20018;-82
2024/01/23 09:59:09;;;;;;;1.80;1.00;;;7.60;99.90;;;;;;5033651;28;20022;-81
2024/01/23 10:01:38;;;;;;;4.35;1.60;;;7.60;99.90;;;;;;5013761;28;20021;-82
2024/01/23 10:04:04;;;;;;;2.25;1.00;;;7.70;99.90;;;;;;5015332;28;20397;-79
2024/01/23 10:06:31;;;;;;;8.13;1.42;;;7.60;99.90;;;;;;5038279;28;20057;-78
2024/01/23 10:08:57;;;;;;;4.72;1.20;;;7.40;99.90;;;;;;5034477;28;20029;-79
2024/01/23 10:11:22;;;;;;;3.00;0.90;;;7.30;99.90;;;;;;5031629;28;20415;-80
2024/01/23 10:13:48;;;;;;;3.45;1.20;;;7.20;99.90;;;;;;5013888;28;20109;-79
2024/01/23 10:16:16;;;;;;;3.67;1.10;;;7.10;99.90;;;;;;5013181;28;20026;-79
2024/01/23 10:18:42;;;;;;;4.60;1.40;;;7.10;99.90;;;;;;5035348;28;20010;-79
2024/01/23 10:21:07;;;;;;;5.25;1.15;;;7.20;99.90;;;;;;5030185;28;20549;-80
2024/01/23 10:23:34;;;;;;;3.17;1.25;;;7.30;99.90;;;;;;5015129;28;20051;-79
2024/01/23 10:25:59;;;;;;;6.38;1.13;;;7.40;99.90;;;;;;5031107;28;20018;-80
2024/01/23 10:28:25;;;;;;;4.00;0.80;;;7.40;99.90;;;;;;5013501;28;20050;-79
2024/01/23 10:30:51;;;;;;;3.53;1.02;;;7.50;99.90;;;;;;5013319;28;20018;-80
2024/01/23 10:33:17;;;;;;;10.60;1.60;;;7.60;99.90;;;;;;5033147;28;20479;-79
2024/01/23 10:35:43;;;;;;;2.25;1.00;;;7.60;99.90;;;;;;5030989;28;20036;-79
2024/01/23 10:38:16;;;;;;;3.35;1.40;;;7.70;99.90;;;;;;5013302;28;20022;-80
2024/01/23 10:40:42;;;;;;;4.03;1.30;;;7.80;99.90;;;;;;5027052;28;20037;-79
2024/01/23 10:43:08;;;;;;;1.77;1.25;;;7.90;99.90;;;;;;5016487;28;20486;-79
2024/01/23 10:45:36;;;;;;;7.82;1.27;;;7.90;99.90;;;;;;5035488;28;20052;-80
2024/01/23 10:48:02;;;;;;;3.90;1.00;;;7.80;99.90;;;;;;5012464;28;20032;-79
2024/01/23 10:50:33;;;;;;;8.32;1.40;;;7.70;99.90;;;;;;5013072;28;20025;-79
2024/01/23 10:53:04;;;;;;;3.58;1.30;;;7.60;99.90;;;;;;5012250;28;20078;-80
2024/01/23 10:55:32;;;;;;;4.80;1.25;;;7.50;99.90;;;;;;5032365;28;20028;-79
2024/01/23 10:58:02;;;;;;;2.97;1.27;;;7.40;99.90;;;;;;5030484;28;20040;-78
2024/01/23 11:00:30;;;;;;;1.10;0.93;;;7.30;99.90;;;;;;5013335;28;20028;-82
2024/01/23 11:02:59;;;;;;;3.33;1.27;;;7.20;99.90;;;;;;5012821;28;20021;-82
2024/01/23 11:05:33;;;;;;;3.47;1.02;;;7.20;99.90;;;;;;5012899;28;20086;-83
2024/01/23 11:08:07;;;;;;;1.88;1.23;;;7.10;99.90;;;;;;5015654;28;20053;-81
2024/01/23 11:10:48;;;;;;;3.72;1.02;;;7.10;99.90;;;;;;5018645;28;20072;-81
2024/01/23 11:13:37;;;;;;;2.35;1.13;;;7.10;99.90;;;;;;5011346;28;20028;-81
2024/01/23 11:16:06;;;;;;;5.28;1.20;;;7.10;99.90;;;;;;5023680;28;20026;-83
2024/01/23 11:18:33;;;;;;;6.55;1.30;;;7.10;99.90;;;;;;5033114;28;20533;-82
2024/01/23 11:21:08;;;;;;;5.55;1.67;;;7.10;99.90;;;;;;5012530;28;20053;-81
2024/01/23 11:23:45;;;;;;;2.92;1.00;;;7.10;99.90;;;;;;5029900;28;20175;-81
2024/01/23 11:26:16;;;;;;;10.93;1.70;;;7.10;99.90;;;;;;5011612;28;20057;-81
2024/01/23 11:28:58;;;;;;;7.78;1.27;;;7.10;99.90;;;;;;5030198;28;20017;-82
2024/01/23 11:31:28;;;;;;;11.75;1.95;;;7.10;99.90;;;;;;5012422;28;20064;-81
2024/01/23 11:34:22;;;;;;;11.30;1.63;;;7.10;99.90;;;;;;5012467;28;20435;-82
2024/01/23 11:36:48;;;;;;;6.85;1.45;;;7.10;99.90;;;;;;5012262;28;20396;-83
2024/01/23 11:39:22;;;;;;;6.00;1.60;;;7.10;99.90;;;;;;5012221;28;20028;-82
2024/01/23 11:41:49;;;;;;;3.42;1.52;;;7.10;99.90;;;;;;5028804;28;20021;-82
2024/01/23 11:44:16;;;;;;;9.82;1.25;;;7.10;99.90;;;;;;5014663;28;20404;-82
2024/01/23 11:46:42;;;;;;;4.65;1.13;;;7.10;99.90;;;;;;5028243;28;20058;-82
2024/01/23 11:49:10;;;;;;;7.88;1.20;;;7.10;99.90;;;;;;5013225;28;20025;-82
2024/01/23 11:51:37;;;;;;;10.27;1.42;;;7.10;99.90;;;;;;5032201;28;20018;-82
2024/01/23 11:54:09;;;;;;;6.82;1.30;;;7.10;99.90;;;;;;5008869;28;20033;-82
2024/01/23 11:56:36;;;;;;;10.18;1.33;;;7.00;99.90;;;;;;5031796;28;20010;-80
2024/01/23 11:59:02;;;;;;;7.00;1.30;;;7.00;99.90;;;;;;5012031;28;20104;-81
2024/01/23 12:01:29;;;;;;;6.43;1.40;;;7.00;99.90;;;;;;5015888;28;20148;-82
2024/01/23 12:03:56;;;;;;;8.57;1.13;;;7.00;99.90;;;;;;5012215;28;20025;-81
2024/01/23 12:06:22;;;;;;;5.00;1.05;;;7.10;99.90;;;;;;5012171;28;20025;-81
2024/01/23 12:08:48;;;;;;;4.93;1.58;;;7.30;99.90;;;;;;5034934;28;20164;-83
2024/01/23 12:11:15;;;;;;;5.03;1.42;;;7.40;99.90;;;;;;5015170;28;20144;-82
2024/01/23 12:13:46;;;;;;;3.58;0.90;;;7.50;99.90;;;;;;5012099;28;20123;-82
2024/01/23 12:16:12;;;;;;;9.13;1.67;;;7.60;99.90;;;;;;5007477;28;20038;-82
2024/01/23 12:18:38;;;;;;;4.32;0.93;;;7.60;99.90;;;;;;5012313;28;20028;-82
2024/01/23 12:21:04;;;;;;;7.78;1.10;;;7.70;99.90;;;;;;5028068;28;20022;-81
2024/01/23 12:23:33;;;;;;;4.57;0.98;;;7.70;99.90;;;;;;5017054;28;20495;-81
2024/01/23 12:25:59;;;;;;;7.38;1.58;;;7.60;99.90;;;;;;5013985;28;20426;-83
2024/01/23 12:28:31;;;;;;;6.53;1.13;;;7.60;99.90;;;;;;5012575;28;20017;-82
2024/01/23 12:30:57;;;;;;;5.28;1.08;;;7.60;99.90;;;;;;5027343;28;20475;-82
2024/01/23 12:33:24;;;;;;;4.00;1.17;;;7.50;99.90;;;;;;5032552;28;20064;-82
2024/01/23 12:35:50;;;;;;;4.88;1.02;;;7.40;99.90;;;;;;5028109;28;20029;-82
2024/01/23 12:38:20;;;;;;;7.45;1.30;;;7.40;99.90;;;;;;5028958;28;20381;-83
2024/01/23 12:40:47;;;;;;;4.82;1.40;;;7.40;99.90;;;;;;5010536;28;20022;-81
2024/01/23 12:43:14;;;;;;;7.53;1.10;;;7.30;99.90;;;;;;5030354;28;20018;-81
2024/01/23 12:45:39;;;;;;;10.15;1.17;;;7.30;99.90;;;;;;5028865;28;20079;-81
2024/01/23 12:48:06;;;;;;;8.45;1.35;;;7.30;99.90;;;;;;5030981;28;20418;-82
2024/01/23 12:50:33;;;;;;;2.40;1.20;;;7.30;99.90;;;;;;5012481;28;20037;-82
2024/01/23 12:52:59;;;;;;;3.17;0.90;;;7.30;99.90;;;;;;5013161;28;20056;-82